Dades de l'estació automàtica Camarasa
Resum diari
21:30 TU| Temperatura mitjana | 13.5 °C | |
|---|---|---|
| Temperatura màxima | 20.3 °C | 11:27 TU |
| Temperatura mínima | 7.9 °C | 21:57 TU |
| Humitat relativa mitjana | 84% | |
| Precipitació acumulada | 11.7 mm | |
| Ratxa màxima del vent (2 m) | 24.1 km/h - 288º | 17:40 TU |
| Irradiació solar global | 18.1 MJ/m2 | |
El tram horari està expressat en Temps Universal (TU). Cal sumar una hora en horari d'hivern i dues en horari d'estiu per passar a l'hora oficial.
Camarasa
| Municipi | Camarasa |
|---|---|
| Comarca | Noguera |
| Altitud | 669 m |
| Data alta | 07.03.2006 |
| Estat actual | Operativa |
| Període TU |
TM °C |
TX °C |
TN °C |
HRM % |
PPT mm |
VVM (2 m) km/h |
DVM (2 m) graus |
VVX (2 m) km/h |
RS W/m2 |
|---|---|---|---|---|---|---|---|---|---|
| 00:00 - 00:30 | 11.2 | 11.6 | 11.0 | 96 | 0.0 | 4.0 | 98 | 13.0 | 0 |
| 00:30 - 01:00 | 11.6 | 11.6 | 11.5 | 94 | 0.0 | 5.0 | 104 | 15.5 | 0 |
| 01:00 - 01:30 | 11.2 | 11.4 | 11.1 | 99 | 0.0 | 4.3 | 106 | 10.4 | 0 |
| 01:30 - 02:00 | 11.1 | 11.2 | 11.0 | 99 | 0.0 | 5.0 | 94 | 13.7 | 0 |
| 02:00 - 02:30 | 11.1 | 11.2 | 11.0 | 98 | 0.0 | 3.6 | 111 | 11.2 | 0 |
| 02:30 - 03:00 | 11.1 | 11.3 | 11.0 | 98 | 0.0 | 5.8 | 131 | 12.6 | 0 |
| 03:00 - 03:30 | 11.2 | 11.4 | 11.0 | 99 | 0.3 | 3.6 | 117 | 10.4 | 0 |
| 03:30 - 04:00 | 10.8 | 10.9 | 10.6 | 100 | 0.4 | 4.3 | 79 | 12.2 | 0 |
| 04:00 - 04:30 | 10.7 | 10.7 | 10.6 | 100 | 0.1 | 6.1 | 85 | 13.0 | 0 |
| 04:30 - 05:00 | 10.7 | 10.8 | 10.7 | 100 | 0.0 | 5.8 | 105 | 14.0 | 1 |
| 05:00 - 05:30 | 10.8 | 10.8 | 10.7 | 100 | 0.0 | 4.7 | 97 | 12.6 | 21 |
| 05:30 - 06:00 | 10.7 | 10.9 | 10.7 | 100 | 0.0 | 2.9 | 93 | 11.9 | 58 |
| 06:00 - 06:30 | 12.2 | 12.9 | 11.1 | 99 | 0.0 | 2.9 | 89 | 8.6 | 263 |
| 06:30 - 07:00 | 12.6 | 12.9 | 12.2 | 98 | 0.0 | 3.6 | 91 | 9.0 | 271 |
| 07:00 - 07:30 | 12.8 | 13.6 | 12.6 | 94 | 0.0 | 3.6 | 98 | 9.0 | 274 |
| 07:30 - 08:00 | 14.5 | 15.4 | 13.8 | 84 | 0.0 | 3.6 | 95 | 9.4 | 488 |
| 08:00 - 08:30 | 15.6 | 16.1 | 15.1 | 78 | 0.0 | 4.0 | 75 | 11.2 | 576 |
| 08:30 - 09:00 | 15.2 | 15.8 | 14.7 | 76 | 0.0 | 2.9 | 31 | 11.2 | 263 |
| 09:00 - 09:30 | 15.4 | 16.9 | 14.5 | 79 | 0.0 | 4.0 | 184 | 10.4 | 523 |
| 09:30 - 10:00 | 17.4 | 18.3 | 16.9 | 67 | 0.0 | 4.3 | 136 | 14.8 | 808 |
| 10:00 - 10:30 | 17.9 | 18.6 | 17.4 | 64 | 0.0 | 4.0 | 182 | 10.4 | 650 |
| 10:30 - 11:00 | 18.7 | 19.6 | 17.7 | 60 | 0.0 | 4.0 | 175 | 11.9 | 995 |
| 11:00 - 11:30 | 19.6 | 20.3 | 19.3 | 55 | 0.0 | 4.7 | 221 | 10.8 | 960 |
| 11:30 - 12:00 | 18.8 | 19.9 | 18.0 | 55 | 0.0 | 4.7 | 267 | 10.4 | 491 |
| 12:00 - 12:30 | 18.4 | 18.8 | 17.8 | 57 | 0.0 | 4.3 | 157 | 12.6 | 270 |
| 12:30 - 13:00 | 16.9 | 17.8 | 15.7 | 64 | 0.0 | 4.7 | 229 | 13.7 | 129 |
| 13:00 - 13:30 | 15.9 | 16.4 | 15.6 | 80 | 0.1 | 5.0 | 193 | 15.5 | 345 |
| 13:30 - 14:00 | 16.8 | 17.4 | 15.9 | 73 | 0.0 | 4.7 | 200 | 14.8 | 435 |
| 14:00 - 14:30 | 16.9 | 17.4 | 16.5 | 73 | 0.0 | 4.3 | 145 | 9.7 | 353 |
| 14:30 - 15:00 | 18.2 | 19.2 | 16.8 | 66 | 0.0 | 2.9 | 208 | 9.7 | 475 |
| 15:00 - 15:30 | 18.6 | 19.8 | 17.7 | 59 | 0.0 | 4.3 | 219 | 11.5 | 497 |
| 15:30 - 16:00 | 17.7 | 18.7 | 17.3 | 56 | 0.0 | 6.1 | 196 | 14.0 | 290 |
| 16:00 - 16:30 | 17.6 | 18.5 | 17.0 | 56 | 0.0 | 5.4 | 190 | 13.7 | 316 |
| 16:30 - 17:00 | 16.8 | 17.2 | 16.6 | 63 | 0.0 | 5.8 | 200 | 18.0 | 214 |
| 17:00 - 17:30 | 16.5 | 17.2 | 15.7 | 67 | 0.0 | 4.3 | 210 | 13.7 | 109 |
| 17:30 - 18:00 | 12.2 | 15.7 | 9.0 | 81 | 7.0 | 6.8 | 255 | 24.1 | 2 |
| 18:00 - 18:30 | 8.9 | 8.9 | 8.8 | 100 | 2.0 | 5.8 | 267 | 16.9 | 1 |
| 18:30 - 19:00 | 9.0 | 9.0 | 8.8 | 100 | 1.1 | 3.6 | 316 | 11.5 | 2 |
| 19:00 - 19:30 | 9.1 | 9.2 | 9.0 | 100 | 0.7 | 2.9 | 55 | 7.2 | 0 |
| 19:30 - 20:00 | 8.8 | 9.2 | 8.3 | 100 | 0.0 | 1.8 | 208 | 5.4 | 0 |
| 20:00 - 20:30 | 8.5 | 8.7 | 8.2 | 100 | 0.0 | 2.9 | 151 | 10.4 | 0 |
| 20:30 - 21:00 | 8.7 | 8.9 | 8.4 | 100 | 0.0 | 3.6 | 205 | 10.1 | 0 |
| 21:00 - 21:30 | 8.1 | 8.5 | 7.9 | 100 | 0.0 | 0.7 | 204 | 2.9 | 0 |
| 21:30 - 22:00 | 8.1 | 8.3 | 7.9 | 100 | 0.0 | 1.4 | 266 | 6.8 | 0 |
| 22:00 - 22:30 | (s/d) | (s/d) | (s/d) | (s/d) | (s/d) | (s/d) | (s/d) | (s/d) | (s/d) |
Les dades en taronja només han passat un control de qualitat automàtic. Resta pendent la seva validació definitiva.